sensor_id;sensor_type;location;lat;lon;timestamp;P1;durP1;ratioP1;P2;durP2;ratioP2
64851;SDS011;56050;55.558;-4.644;2022-12-07T00:01:10;4.40;;;2.63;;
64851;SDS011;56050;55.558;-4.644;2022-12-07T00:03:41;6.18;;;2.03;;
64851;SDS011;56050;55.558;-4.644;2022-12-07T00:06:08;5.90;;;2.08;;
64851;SDS011;56050;55.558;-4.644;2022-12-07T00:08:36;8.52;;;2.60;;
64851;SDS011;56050;55.558;-4.644;2022-12-07T00:11:06;7.00;;;2.28;;
64851;SDS011;56050;55.558;-4.644;2022-12-07T00:13:32;6.38;;;2.63;;
64851;SDS011;56050;55.558;-4.644;2022-12-07T00:16:02;10.07;;;2.90;;
64851;SDS011;56050;55.558;-4.644;2022-12-07T00:18:29;6.40;;;2.90;;
64851;SDS011;56050;55.558;-4.644;2022-12-07T00:21:05;5.80;;;3.08;;
64851;SDS011;56050;55.558;-4.644;2022-12-07T00:23:33;7.25;;;3.35;;
64851;SDS011;56050;55.558;-4.644;2022-12-07T00:26:11;7.68;;;3.75;;
64851;SDS011;56050;55.558;-4.644;2022-12-07T00:28:39;9.20;;;3.05;;
64851;SDS011;56050;55.558;-4.644;2022-12-07T00:33:37;5.50;;;2.33;;
64851;SDS011;56050;55.558;-4.644;2022-12-07T00:36:04;7.70;;;2.30;;
64851;SDS011;56050;55.558;-4.644;2022-12-07T00:38:37;7.55;;;3.42;;
64851;SDS011;56050;55.558;-4.644;2022-12-07T00:41:05;6.35;;;3.17;;
64851;SDS011;56050;55.558;-4.644;2022-12-07T00:43:32;8.48;;;3.97;;
64851;SDS011;56050;55.558;-4.644;2022-12-07T00:48:24;7.30;;;3.07;;
64851;SDS011;56050;55.558;-4.644;2022-12-07T00:50:49;9.75;;;3.58;;
64851;SDS011;56050;55.558;-4.644;2022-12-07T00:55:41;6.30;;;2.65;;
64851;SDS011;56050;55.558;-4.644;2022-12-07T00:58:08;6.88;;;4.00;;
64851;SDS011;56050;55.558;-4.644;2022-12-07T01:00:35;10.10;;;3.42;;
64851;SDS011;56050;55.558;-4.644;2022-12-07T01:03:02;9.18;;;4.15;;
64851;SDS011;56050;55.558;-4.644;2022-12-07T01:05:29;8.85;;;3.92;;
64851;SDS011;56050;55.558;-4.644;2022-12-07T01:07:54;6.85;;;3.10;;
64851;SDS011;56050;55.558;-4.644;2022-12-07T01:10:20;6.00;;;2.53;;
64851;SDS011;56050;55.558;-4.644;2022-12-07T01:12:45;5.82;;;3.72;;
64851;SDS011;56050;55.558;-4.644;2022-12-07T01:15:11;7.88;;;2.95;;
64851;SDS011;56050;55.558;-4.644;2022-12-07T01:17:36;7.20;;;2.70;;
64851;SDS011;56050;55.558;-4.644;2022-12-07T01:20:02;6.97;;;2.13;;
64851;SDS011;56050;55.558;-4.644;2022-12-07T01:22:28;6.45;;;2.78;;
64851;SDS011;56050;55.558;-4.644;2022-12-07T01:24:54;5.93;;;2.33;;
64851;SDS011;56050;55.558;-4.644;2022-12-07T01:27:19;6.90;;;2.78;;
64851;SDS011;56050;55.558;-4.644;2022-12-07T01:29:45;7.53;;;3.25;;
64851;SDS011;56050;55.558;-4.644;2022-12-07T01:32:10;5.47;;;2.63;;
64851;SDS011;56050;55.558;-4.644;2022-12-07T01:34:36;7.47;;;3.00;;
64851;SDS011;56050;55.558;-4.644;2022-12-07T01:37:02;10.85;;;3.25;;
64851;SDS011;56050;55.558;-4.644;2022-12-07T01:39:27;7.57;;;3.03;;
64851;SDS011;56050;55.558;-4.644;2022-12-07T01:41:53;5.97;;;2.58;;
64851;SDS011;56050;55.558;-4.644;2022-12-07T01:44:22;7.43;;;3.03;;
64851;SDS011;56050;55.558;-4.644;2022-12-07T01:46:50;8.93;;;3.40;;
64851;SDS011;56050;55.558;-4.644;2022-12-07T01:52:01;4.32;;;2.33;;
64851;SDS011;56050;55.558;-4.644;2022-12-07T01:54:33;6.88;;;3.78;;
64851;SDS011;56050;55.558;-4.644;2022-12-07T01:56:59;5.85;;;2.30;;
64851;SDS011;56050;55.558;-4.644;2022-12-07T01:59:26;7.40;;;2.80;;
64851;SDS011;56050;55.558;-4.644;2022-12-07T02:01:52;5.90;;;2.53;;
64851;SDS011;56050;55.558;-4.644;2022-12-07T02:04:19;6.90;;;2.25;;
64851;SDS011;56050;55.558;-4.644;2022-12-07T02:06:46;6.13;;;2.28;;
64851;SDS011;56050;55.558;-4.644;2022-12-07T02:11:38;5.32;;;2.97;;
64851;SDS011;56050;55.558;-4.644;2022-12-07T02:14:04;4.20;;;2.63;;
64851;SDS011;56050;55.558;-4.644;2022-12-07T02:16:33;6.15;;;2.85;;
64851;SDS011;56050;55.558;-4.644;2022-12-07T02:22:05;4.47;;;2.20;;
64851;SDS011;56050;55.558;-4.644;2022-12-07T02:25:03;4.38;;;2.05;;
64851;SDS011;56050;55.558;-4.644;2022-12-07T02:27:36;5.28;;;1.98;;
64851;SDS011;56050;55.558;-4.644;2022-12-07T02:30:12;4.43;;;1.70;;
64851;SDS011;56050;55.558;-4.644;2022-12-07T02:32:51;4.15;;;2.28;;
64851;SDS011;56050;55.558;-4.644;2022-12-07T02:40:35;1.80;;;0.85;;
64851;SDS011;56050;55.558;-4.644;2022-12-07T02:43:10;1.75;;;0.90;;
64851;SDS011;56050;55.558;-4.644;2022-12-07T02:45:41;2.70;;;1.30;;
64851;SDS011;56050;55.558;-4.644;2022-12-07T02:48:10;4.18;;;1.88;;
64851;SDS011;56050;55.558;-4.644;2022-12-07T02:50:38;1.20;;;0.77;;
64851;SDS011;56050;55.558;-4.644;2022-12-07T02:53:04;3.72;;;0.73;;
64851;SDS011;56050;55.558;-4.644;2022-12-07T02:55:39;4.97;;;1.73;;
64851;SDS011;56050;55.558;-4.644;2022-12-07T03:01:08;3.28;;;1.38;;
64851;SDS011;56050;55.558;-4.644;2022-12-07T03:03:37;3.88;;;0.88;;
64851;SDS011;56050;55.558;-4.644;2022-12-07T03:06:09;4.38;;;0.85;;
64851;SDS011;56050;55.558;-4.644;2022-12-07T03:08:46;3.08;;;1.45;;
64851;SDS011;56050;55.558;-4.644;2022-12-07T03:11:36;3.90;;;1.23;;
64851;SDS011;56050;55.558;-4.644;2022-12-07T03:14:31;3.55;;;1.25;;
64851;SDS011;56050;55.558;-4.644;2022-12-07T03:17:05;3.85;;;1.00;;
64851;SDS011;56050;55.558;-4.644;2022-12-07T03:19:37;2.60;;;0.95;;
64851;SDS011;56050;55.558;-4.644;2022-12-07T03:22:07;4.00;;;0.68;;
64851;SDS011;56050;55.558;-4.644;2022-12-07T03:24:37;2.47;;;1.63;;
64851;SDS011;56050;55.558;-4.644;2022-12-07T03:27:13;3.95;;;0.98;;
64851;SDS011;56050;55.558;-4.644;2022-12-07T03:29:44;5.30;;;1.35;;
64851;SDS011;56050;55.558;-4.644;2022-12-07T03:32:23;2.08;;;0.90;;
64851;SDS011;56050;55.558;-4.644;2022-12-07T03:34:54;4.70;;;1.88;;
64851;SDS011;56050;55.558;-4.644;2022-12-07T03:37:28;2.30;;;1.92;;
64851;SDS011;56050;55.558;-4.644;2022-12-07T03:40:13;4.32;;;1.67;;
64851;SDS011;56050;55.558;-4.644;2022-12-07T03:42:47;2.70;;;1.40;;
64851;SDS011;56050;55.558;-4.644;2022-12-07T03:47:45;2.65;;;1.25;;
64851;SDS011;56050;55.558;-4.644;2022-12-07T03:50:28;4.45;;;0.90;;
64851;SDS011;56050;55.558;-4.644;2022-12-07T03:54:02;2.28;;;1.05;;
64851;SDS011;56050;55.558;-4.644;2022-12-07T03:56:11;2.10;;;0.82;;
64851;SDS011;56050;55.558;-4.644;2022-12-07T03:58:38;3.05;;;0.70;;
64851;SDS011;56050;55.558;-4.644;2022-12-07T04:01:06;1.90;;;1.20;;
64851;SDS011;56050;55.558;-4.644;2022-12-07T04:03:31;1.65;;;0.82;;
64851;SDS011;56050;55.558;-4.644;2022-12-07T04:05:57;1.77;;;1.00;;
64851;SDS011;56050;55.558;-4.644;2022-12-07T04:08:23;2.60;;;1.13;;
64851;SDS011;56050;55.558;-4.644;2022-12-07T04:10:49;2.35;;;1.15;;
64851;SDS011;56050;55.558;-4.644;2022-12-07T04:13:14;4.93;;;2.20;;
64851;SDS011;56050;55.558;-4.644;2022-12-07T04:15:40;3.47;;;1.65;;
64851;SDS011;56050;55.558;-4.644;2022-12-07T04:18:05;4.97;;;1.70;;
64851;SDS011;56050;55.558;-4.644;2022-12-07T04:20:31;3.65;;;1.85;;
64851;SDS011;56050;55.558;-4.644;2022-12-07T04:22:56;8.65;;;2.42;;
64851;SDS011;56050;55.558;-4.644;2022-12-07T04:25:22;5.70;;;4.10;;
64851;SDS011;56050;55.558;-4.644;2022-12-07T04:27:47;2.95;;;1.83;;
64851;SDS011;56050;55.558;-4.644;2022-12-07T04:30:12;4.88;;;2.13;;
64851;SDS011;56050;55.558;-4.644;2022-12-07T04:32:38;3.03;;;1.33;;
64851;SDS011;56050;55.558;-4.644;2022-12-07T04:35:03;3.38;;;1.80;;
64851;SDS011;56050;55.558;-4.644;2022-12-07T04:39:55;3.17;;;1.73;;
64851;SDS011;56050;55.558;-4.644;2022-12-07T04:42:20;3.10;;;2.20;;
64851;SDS011;56050;55.558;-4.644;2022-12-07T04:44:46;6.68;;;1.92;;
64851;SDS011;56050;55.558;-4.644;2022-12-07T04:47:11;4.95;;;2.05;;
64851;SDS011;56050;55.558;-4.644;2022-12-07T04:49:37;3.67;;;1.88;;
64851;SDS011;56050;55.558;-4.644;2022-12-07T04:52:02;2.58;;;1.67;;
64851;SDS011;56050;55.558;-4.644;2022-12-07T04:54:28;2.88;;;1.42;;
64851;SDS011;56050;55.558;-4.644;2022-12-07T04:56:53;2.00;;;0.65;;
64851;SDS011;56050;55.558;-4.644;2022-12-07T04:59:20;3.08;;;1.05;;
64851;SDS011;56050;55.558;-4.644;2022-12-07T05:01:45;2.97;;;1.02;;
64851;SDS011;56050;55.558;-4.644;2022-12-07T05:04:11;2.42;;;1.02;;
64851;SDS011;56050;55.558;-4.644;2022-12-07T05:06:36;3.38;;;1.70;;
64851;SDS011;56050;55.558;-4.644;2022-12-07T05:09:02;2.42;;;1.00;;
64851;SDS011;56050;55.558;-4.644;2022-12-07T05:11:28;3.38;;;1.25;;
64851;SDS011;56050;55.558;-4.644;2022-12-07T05:16:36;5.80;;;1.02;;
64851;SDS011;56050;55.558;-4.644;2022-12-07T05:19:02;1.90;;;1.27;;
64851;SDS011;56050;55.558;-4.644;2022-12-07T05:21:28;3.10;;;1.52;;
64851;SDS011;56050;55.558;-4.644;2022-12-07T05:23:54;2.35;;;1.55;;
64851;SDS011;56050;55.558;-4.644;2022-12-07T05:26:19;3.28;;;1.15;;
64851;SDS011;56050;55.558;-4.644;2022-12-07T05:28:44;4.55;;;1.48;;
64851;SDS011;56050;55.558;-4.644;2022-12-07T05:31:10;3.47;;;1.10;;
64851;SDS011;56050;55.558;-4.644;2022-12-07T05:33:35;1.70;;;0.90;;
64851;SDS011;56050;55.558;-4.644;2022-12-07T05:36:01;1.73;;;1.35;;
64851;SDS011;56050;55.558;-4.644;2022-12-07T05:38:30;4.10;;;0.90;;
64851;SDS011;56050;55.558;-4.644;2022-12-07T05:41:00;2.05;;;0.90;;
64851;SDS011;56050;55.558;-4.644;2022-12-07T05:43:27;2.22;;;1.00;;
64851;SDS011;56050;55.558;-4.644;2022-12-07T05:45:53;2.00;;;1.00;;
64851;SDS011;56050;55.558;-4.644;2022-12-07T05:48:18;2.17;;;1.15;;
64851;SDS011;56050;55.558;-4.644;2022-12-07T05:50:44;2.75;;;1.83;;
64851;SDS011;56050;55.558;-4.644;2022-12-07T05:53:12;3.35;;;1.10;;
64851;SDS011;56050;55.558;-4.644;2022-12-07T05:55:37;2.33;;;1.17;;
64851;SDS011;56050;55.558;-4.644;2022-12-07T05:58:02;3.80;;;2.08;;
64851;SDS011;56050;55.558;-4.644;2022-12-07T06:00:46;4.38;;;1.30;;
64851;SDS011;56050;55.558;-4.644;2022-12-07T06:03:12;4.65;;;1.83;;
64851;SDS011;56050;55.558;-4.644;2022-12-07T06:05:37;4.35;;;1.15;;
64851;SDS011;56050;55.558;-4.644;2022-12-07T06:08:03;2.50;;;1.58;;
64851;SDS011;56050;55.558;-4.644;2022-12-07T06:10:28;4.60;;;0.82;;
64851;SDS011;56050;55.558;-4.644;2022-12-07T06:12:54;1.95;;;0.90;;
64851;SDS011;56050;55.558;-4.644;2022-12-07T06:15:19;2.03;;;0.50;;
64851;SDS011;56050;55.558;-4.644;2022-12-07T06:17:45;2.50;;;1.08;;
64851;SDS011;56050;55.558;-4.644;2022-12-07T06:20:10;2.60;;;0.57;;
64851;SDS011;56050;55.558;-4.644;2022-12-07T06:22:35;3.75;;;0.50;;
64851;SDS011;56050;55.558;-4.644;2022-12-07T06:25:01;5.43;;;1.15;;
64851;SDS011;56050;55.558;-4.644;2022-12-07T06:27:27;2.20;;;0.75;;
64851;SDS011;56050;55.558;-4.644;2022-12-07T06:29:52;1.10;;;0.60;;
64851;SDS011;56050;55.558;-4.644;2022-12-07T06:32:18;1.35;;;0.63;;
64851;SDS011;56050;55.558;-4.644;2022-12-07T06:34:43;1.40;;;0.77;;
64851;SDS011;56050;55.558;-4.644;2022-12-07T06:37:08;1.38;;;0.70;;
64851;SDS011;56050;55.558;-4.644;2022-12-07T06:39:34;1.38;;;0.85;;
64851;SDS011;56050;55.558;-4.644;2022-12-07T06:41:59;1.00;;;0.75;;
64851;SDS011;56050;55.558;-4.644;2022-12-07T06:44:25;4.82;;;0.93;;
64851;SDS011;56050;55.558;-4.644;2022-12-07T06:46:50;3.15;;;1.02;;
64851;SDS011;56050;55.558;-4.644;2022-12-07T06:49:16;2.80;;;1.77;;
64851;SDS011;56050;55.558;-4.644;2022-12-07T06:51:42;1.92;;;0.80;;
64851;SDS011;56050;55.558;-4.644;2022-12-07T06:54:08;2.08;;;0.90;;
64851;SDS011;56050;55.558;-4.644;2022-12-07T06:56:35;2.85;;;0.90;;
64851;SDS011;56050;55.558;-4.644;2022-12-07T06:59:01;1.88;;;0.80;;
64851;SDS011;56050;55.558;-4.644;2022-12-07T07:01:27;3.17;;;0.90;;
64851;SDS011;56050;55.558;-4.644;2022-12-07T07:03:53;1.48;;;0.82;;
64851;SDS011;56050;55.558;-4.644;2022-12-07T07:06:18;2.80;;;1.00;;
64851;SDS011;56050;55.558;-4.644;2022-12-07T07:08:44;4.63;;;1.35;;
64851;SDS011;56050;55.558;-4.644;2022-12-07T07:11:10;4.20;;;1.90;;
64851;SDS011;56050;55.558;-4.644;2022-12-07T07:13:35;3.22;;;1.83;;
64851;SDS011;56050;55.558;-4.644;2022-12-07T07:16:01;6.40;;;1.45;;
64851;SDS011;56050;55.558;-4.644;2022-12-07T07:18:27;4.10;;;1.40;;
64851;SDS011;56050;55.558;-4.644;2022-12-07T07:20:53;4.22;;;1.13;;
64851;SDS011;56050;55.558;-4.644;2022-12-07T07:23:19;3.40;;;1.20;;
64851;SDS011;56050;55.558;-4.644;2022-12-07T07:25:45;4.00;;;1.60;;
64851;SDS011;56050;55.558;-4.644;2022-12-07T07:28:11;2.17;;;1.02;;
64851;SDS011;56050;55.558;-4.644;2022-12-07T07:30:37;2.20;;;0.95;;
64851;SDS011;56050;55.558;-4.644;2022-12-07T07:33:04;2.88;;;0.80;;
64851;SDS011;56050;55.558;-4.644;2022-12-07T07:35:30;1.02;;;0.70;;
64851;SDS011;56050;55.558;-4.644;2022-12-07T07:37:57;1.20;;;0.90;;
64851;SDS011;56050;55.558;-4.644;2022-12-07T07:40:23;5.38;;;0.80;;
64851;SDS011;56050;55.558;-4.644;2022-12-07T07:42:49;6.70;;;1.35;;
64851;SDS011;56050;55.558;-4.644;2022-12-07T07:45:19;4.95;;;1.00;;
64851;SDS011;56050;55.558;-4.644;2022-12-07T07:47:46;3.15;;;1.10;;
64851;SDS011;56050;55.558;-4.644;2022-12-07T07:50:12;3.22;;;1.02;;
64851;SDS011;56050;55.558;-4.644;2022-12-07T07:52:38;1.35;;;0.88;;
64851;SDS011;56050;55.558;-4.644;2022-12-07T07:55:04;2.67;;;0.88;;
64851;SDS011;56050;55.558;-4.644;2022-12-07T07:57:30;1.55;;;0.98;;
64851;SDS011;56050;55.558;-4.644;2022-12-07T07:59:56;1.90;;;0.85;;
64851;SDS011;56050;55.558;-4.644;2022-12-07T08:02:21;4.35;;;1.23;;
64851;SDS011;56050;55.558;-4.644;2022-12-07T08:04:47;1.90;;;1.15;;
64851;SDS011;56050;55.558;-4.644;2022-12-07T08:07:13;2.13;;;1.33;;
64851;SDS011;56050;55.558;-4.644;2022-12-07T08:09:39;3.47;;;1.17;;
64851;SDS011;56050;55.558;-4.644;2022-12-07T08:12:05;4.50;;;1.35;;
64851;SDS011;56050;55.558;-4.644;2022-12-07T08:14:30;3.95;;;1.33;;
64851;SDS011;56050;55.558;-4.644;2022-12-07T08:16:56;2.47;;;1.45;;
64851;SDS011;56050;55.558;-4.644;2022-12-07T08:19:22;3.88;;;1.33;;
64851;SDS011;56050;55.558;-4.644;2022-12-07T08:21:48;5.00;;;2.03;;
64851;SDS011;56050;55.558;-4.644;2022-12-07T08:24:13;3.17;;;1.05;;
64851;SDS011;56050;55.558;-4.644;2022-12-07T08:26:40;2.90;;;1.08;;
64851;SDS011;56050;55.558;-4.644;2022-12-07T08:29:05;5.38;;;1.20;;
64851;SDS011;56050;55.558;-4.644;2022-12-07T08:31:31;4.88;;;1.20;;
64851;SDS011;56050;55.558;-4.644;2022-12-07T08:33:56;3.45;;;1.35;;
64851;SDS011;56050;55.558;-4.644;2022-12-07T08:36:22;5.05;;;1.63;;
64851;SDS011;56050;55.558;-4.644;2022-12-07T08:38:48;5.30;;;1.40;;
64851;SDS011;56050;55.558;-4.644;2022-12-07T08:41:14;3.95;;;2.55;;
64851;SDS011;56050;55.558;-4.644;2022-12-07T08:43:39;3.08;;;1.58;;
64851;SDS011;56050;55.558;-4.644;2022-12-07T08:49:40;3.78;;;1.10;;
64851;SDS011;56050;55.558;-4.644;2022-12-07T08:51:52;2.28;;;1.15;;
64851;SDS011;56050;55.558;-4.644;2022-12-07T08:54:18;4.75;;;1.00;;
64851;SDS011;56050;55.558;-4.644;2022-12-07T08:56:45;4.03;;;0.95;;
64851;SDS011;56050;55.558;-4.644;2022-12-07T08:59:13;3.25;;;1.05;;
64851;SDS011;56050;55.558;-4.644;2022-12-07T09:01:41;4.43;;;1.60;;
64851;SDS011;56050;55.558;-4.644;2022-12-07T09:04:06;2.03;;;0.98;;
64851;SDS011;56050;55.558;-4.644;2022-12-07T09:06:32;2.88;;;1.48;;
64851;SDS011;56050;55.558;-4.644;2022-12-07T09:08:58;1.73;;;1.00;;
64851;SDS011;56050;55.558;-4.644;2022-12-07T09:11:26;3.35;;;1.17;;
64851;SDS011;56050;55.558;-4.644;2022-12-07T09:13:51;3.60;;;1.35;;
64851;SDS011;56050;55.558;-4.644;2022-12-07T09:16:17;2.95;;;1.00;;
64851;SDS011;56050;55.558;-4.644;2022-12-07T09:18:42;1.73;;;1.08;;
64851;SDS011;56050;55.558;-4.644;2022-12-07T09:21:08;4.45;;;1.13;;
64851;SDS011;56050;55.558;-4.644;2022-12-07T09:23:34;2.25;;;1.45;;
64851;SDS011;56050;55.558;-4.644;2022-12-07T09:26:00;4.07;;;1.33;;
64851;SDS011;56050;55.558;-4.644;2022-12-07T09:28:26;2.83;;;0.98;;
64851;SDS011;56050;55.558;-4.644;2022-12-07T09:30:52;1.58;;;0.95;;
64851;SDS011;56050;55.558;-4.644;2022-12-07T09:33:17;5.57;;;1.02;;
64851;SDS011;56050;55.558;-4.644;2022-12-07T09:35:46;4.00;;;1.15;;
64851;SDS011;56050;55.558;-4.644;2022-12-07T09:38:14;4.85;;;1.38;;
64851;SDS011;56050;55.558;-4.644;2022-12-07T09:40:40;8.15;;;1.90;;
64851;SDS011;56050;55.558;-4.644;2022-12-07T09:43:29;6.70;;;1.77;;
64851;SDS011;56050;55.558;-4.644;2022-12-07T09:45:54;6.05;;;1.33;;
64851;SDS011;56050;55.558;-4.644;2022-12-07T09:48:21;4.97;;;1.83;;
64851;SDS011;56050;55.558;-4.644;2022-12-07T09:50:50;3.63;;;1.77;;
64851;SDS011;56050;55.558;-4.644;2022-12-07T09:53:24;4.57;;;1.95;;
64851;SDS011;56050;55.558;-4.644;2022-12-07T09:55:52;4.28;;;2.08;;
64851;SDS011;56050;55.558;-4.644;2022-12-07T09:58:20;7.95;;;1.92;;
64851;SDS011;56050;55.558;-4.644;2022-12-07T10:00:55;4.45;;;2.00;;
64851;SDS011;56050;55.558;-4.644;2022-12-07T10:03:25;6.95;;;1.95;;
64851;SDS011;56050;55.558;-4.644;2022-12-07T10:05:53;5.07;;;2.10;;
64851;SDS011;56050;55.558;-4.644;2022-12-07T10:08:19;3.30;;;1.95;;
64851;SDS011;56050;55.558;-4.644;2022-12-07T10:10:45;4.68;;;2.28;;
64851;SDS011;56050;55.558;-4.644;2022-12-07T10:13:20;6.97;;;2.58;;
64851;SDS011;56050;55.558;-4.644;2022-12-07T10:15:54;6.13;;;2.67;;
64851;SDS011;56050;55.558;-4.644;2022-12-07T10:29:19;3.78;;;1.02;;
64851;SDS011;56050;55.558;-4.644;2022-12-07T10:31:50;4.68;;;1.92;;
64851;SDS011;56050;55.558;-4.644;2022-12-07T10:34:25;1.75;;;1.20;;
64851;SDS011;56050;55.558;-4.644;2022-12-07T10:36:54;5.15;;;2.00;;
64851;SDS011;56050;55.558;-4.644;2022-12-07T10:39:44;11.25;;;1.73;;
64851;SDS011;56050;55.558;-4.644;2022-12-07T10:42:24;6.47;;;1.52;;
64851;SDS011;56050;55.558;-4.644;2022-12-07T10:45:06;8.85;;;3.35;;
64851;SDS011;56050;55.558;-4.644;2022-12-07T10:47:46;9.43;;;3.33;;
64851;SDS011;56050;55.558;-4.644;2022-12-07T10:56:44;8.38;;;3.03;;
64851;SDS011;56050;55.558;-4.644;2022-12-07T10:58:59;7.53;;;2.22;;
64851;SDS011;56050;55.558;-4.644;2022-12-07T11:05:25;6.35;;;1.40;;
64851;SDS011;56050;55.558;-4.644;2022-12-07T11:15:41;3.65;;;1.58;;
64851;SDS011;56050;55.558;-4.644;2022-12-07T11:18:35;5.45;;;3.00;;
64851;SDS011;56050;55.558;-4.644;2022-12-07T11:32:57;6.05;;;2.47;;
64851;SDS011;56050;55.558;-4.644;2022-12-07T11:35:47;6.70;;;2.95;;
64851;SDS011;56050;55.558;-4.644;2022-12-07T11:38:23;3.80;;;2.25;;
64851;SDS011;56050;55.558;-4.644;2022-12-07T11:41:01;2.83;;;1.48;;
64851;SDS011;56050;55.558;-4.644;2022-12-07T11:43:56;5.93;;;1.17;;
64851;SDS011;56050;55.558;-4.644;2022-12-07T11:46:29;4.63;;;1.92;;
64851;SDS011;56050;55.558;-4.644;2022-12-07T11:49:12;5.88;;;1.85;;
64851;SDS011;56050;55.558;-4.644;2022-12-07T11:51:46;6.03;;;2.13;;
64851;SDS011;56050;55.558;-4.644;2022-12-07T11:54:27;4.80;;;2.00;;
64851;SDS011;56050;55.558;-4.644;2022-12-07T11:57:01;4.07;;;2.33;;
64851;SDS011;56050;55.558;-4.644;2022-12-07T11:59:38;5.72;;;1.60;;
64851;SDS011;56050;55.558;-4.644;2022-12-07T12:02:15;6.00;;;2.97;;
64851;SDS011;56050;55.558;-4.644;2022-12-07T12:04:54;7.38;;;2.25;;
64851;SDS011;56050;55.558;-4.644;2022-12-07T12:07:26;8.48;;;4.00;;
64851;SDS011;56050;55.558;-4.644;2022-12-07T12:10:15;9.70;;;4.20;;
64851;SDS011;56050;55.558;-4.644;2022-12-07T12:20:51;6.68;;;2.92;;
64851;SDS011;56050;55.558;-4.644;2022-12-07T12:26:06;11.68;;;5.78;;
64851;SDS011;56050;55.558;-4.644;2022-12-07T12:28:48;9.85;;;5.40;;
64851;SDS011;56050;55.558;-4.644;2022-12-07T12:33:52;10.18;;;5.60;;
64851;SDS011;56050;55.558;-4.644;2022-12-07T12:36:27;13.05;;;4.78;;
64851;SDS011;56050;55.558;-4.644;2022-12-07T12:39:16;7.90;;;4.13;;
64851;SDS011;56050;55.558;-4.644;2022-12-07T12:46:55;11.50;;;4.97;;
64851;SDS011;56050;55.558;-4.644;2022-12-07T12:56:48;6.75;;;2.47;;
64851;SDS011;56050;55.558;-4.644;2022-12-07T13:01:47;10.90;;;2.92;;
64851;SDS011;56050;55.558;-4.644;2022-12-07T13:04:21;8.20;;;3.15;;
64851;SDS011;56050;55.558;-4.644;2022-12-07T13:06:56;7.25;;;2.20;;
64851;SDS011;56050;55.558;-4.644;2022-12-07T13:12:05;5.22;;;2.85;;
64851;SDS011;56050;55.558;-4.644;2022-12-07T13:14:42;5.57;;;2.35;;
64851;SDS011;56050;55.558;-4.644;2022-12-07T13:19:59;3.75;;;1.50;;
64851;SDS011;56050;55.558;-4.644;2022-12-07T13:25:37;4.78;;;2.30;;
64851;SDS011;56050;55.558;-4.644;2022-12-07T13:27:51;4.03;;;1.98;;
64851;SDS011;56050;55.558;-4.644;2022-12-07T13:30:23;6.05;;;2.65;;
64851;SDS011;56050;55.558;-4.644;2022-12-07T13:32:52;13.10;;;3.35;;
64851;SDS011;56050;55.558;-4.644;2022-12-07T13:35:30;12.55;;;5.43;;
64851;SDS011;56050;55.558;-4.644;2022-12-07T13:37:56;19.83;;;5.57;;
64851;SDS011;56050;55.558;-4.644;2022-12-07T13:42:56;9.63;;;4.47;;
64851;SDS011;56050;55.558;-4.644;2022-12-07T13:45:25;9.73;;;4.30;;
64851;SDS011;56050;55.558;-4.644;2022-12-07T13:48:35;16.20;;;4.75;;
64851;SDS011;56050;55.558;-4.644;2022-12-07T13:51:15;10.05;;;3.65;;
64851;SDS011;56050;55.558;-4.644;2022-12-07T13:53:46;6.18;;;2.60;;
64851;SDS011;56050;55.558;-4.644;2022-12-07T13:56:13;4.90;;;3.00;;
64851;SDS011;56050;55.558;-4.644;2022-12-07T13:58:40;3.78;;;2.38;;
64851;SDS011;56050;55.558;-4.644;2022-12-07T14:03:32;6.40;;;1.52;;
64851;SDS011;56050;55.558;-4.644;2022-12-07T14:06:11;5.63;;;2.30;;
64851;SDS011;56050;55.558;-4.644;2022-12-07T14:08:41;4.68;;;2.38;;
64851;SDS011;56050;55.558;-4.644;2022-12-07T14:11:09;4.35;;;2.05;;
64851;SDS011;56050;55.558;-4.644;2022-12-07T14:13:44;4.25;;;1.45;;
64851;SDS011;56050;55.558;-4.644;2022-12-07T14:26:20;3.70;;;1.80;;
64851;SDS011;56050;55.558;-4.644;2022-12-07T14:28:46;2.67;;;1.35;;
64851;SDS011;56050;55.558;-4.644;2022-12-07T14:31:13;3.80;;;1.95;;
64851;SDS011;56050;55.558;-4.644;2022-12-07T14:33:40;3.53;;;1.63;;
64851;SDS011;56050;55.558;-4.644;2022-12-07T14:36:13;6.68;;;1.65;;
64851;SDS011;56050;55.558;-4.644;2022-12-07T14:38:40;3.70;;;2.03;;
64851;SDS011;56050;55.558;-4.644;2022-12-07T14:43:55;3.63;;;1.45;;
64851;SDS011;56050;55.558;-4.644;2022-12-07T14:48:46;1.80;;;1.53;;
64851;SDS011;56050;55.558;-4.644;2022-12-07T14:53:39;4.57;;;1.10;;
64851;SDS011;56050;55.558;-4.644;2022-12-07T14:56:08;4.13;;;1.33;;
64851;SDS011;56050;55.558;-4.644;2022-12-07T15:00:59;3.67;;;1.63;;
64851;SDS011;56050;55.558;-4.644;2022-12-07T15:05:50;2.73;;;1.47;;
64851;SDS011;56050;55.558;-4.644;2022-12-07T15:10:41;8.60;;;1.33;;
64851;SDS011;56050;55.558;-4.644;2022-12-07T15:15:55;2.70;;;1.13;;
64851;SDS011;56050;55.558;-4.644;2022-12-07T15:20:47;3.63;;;1.35;;
64851;SDS011;56050;55.558;-4.644;2022-12-07T15:25:41;8.32;;;1.10;;
64851;SDS011;56050;55.558;-4.644;2022-12-07T15:28:08;5.55;;;2.55;;
64851;SDS011;56050;55.558;-4.644;2022-12-07T15:32:59;3.47;;;1.20;;
64851;SDS011;56050;55.558;-4.644;2022-12-07T15:35:24;5.72;;;1.42;;
64851;SDS011;56050;55.558;-4.644;2022-12-07T15:37:50;6.30;;;1.70;;
64851;SDS011;56050;55.558;-4.644;2022-12-07T15:42:41;7.20;;;1.63;;
64851;SDS011;56050;55.558;-4.644;2022-12-07T15:47:36;3.67;;;1.38;;
64851;SDS011;56050;55.558;-4.644;2022-12-07T15:50:04;8.73;;;1.83;;
64851;SDS011;56050;55.558;-4.644;2022-12-07T15:52:32;9.27;;;1.85;;
64851;SDS011;56050;55.558;-4.644;2022-12-07T15:54:58;5.47;;;1.60;;
64851;SDS011;56050;55.558;-4.644;2022-12-07T15:57:25;4.30;;;1.25;;
64851;SDS011;56050;55.558;-4.644;2022-12-07T16:02:16;2.53;;;1.05;;
64851;SDS011;56050;55.558;-4.644;2022-12-07T16:04:41;2.85;;;1.10;;
64851;SDS011;56050;55.558;-4.644;2022-12-07T16:07:07;4.32;;;1.75;;
64851;SDS011;56050;55.558;-4.644;2022-12-07T16:11:58;4.80;;;1.60;;
64851;SDS011;56050;55.558;-4.644;2022-12-07T16:16:49;4.40;;;1.93;;
64851;SDS011;56050;55.558;-4.644;2022-12-07T16:21:40;3.83;;;1.60;;
64851;SDS011;56050;55.558;-4.644;2022-12-07T16:26:31;4.35;;;1.00;;
64851;SDS011;56050;55.558;-4.644;2022-12-07T16:28:57;2.38;;;1.23;;
64851;SDS011;56050;55.558;-4.644;2022-12-07T16:31:23;4.22;;;1.10;;
64851;SDS011;56050;55.558;-4.644;2022-12-07T16:33:52;5.22;;;1.50;;
64851;SDS011;56050;55.558;-4.644;2022-12-07T16:36:19;5.22;;;0.73;;
64851;SDS011;56050;55.558;-4.644;2022-12-07T16:38:47;1.92;;;0.73;;
64851;SDS011;56050;55.558;-4.644;2022-12-07T16:41:13;3.88;;;1.17;;
64851;SDS011;56050;55.558;-4.644;2022-12-07T16:46:04;1.80;;;0.65;;
64851;SDS011;56050;55.558;-4.644;2022-12-07T16:50:56;2.35;;;1.15;;
64851;SDS011;56050;55.558;-4.644;2022-12-07T16:53:22;2.47;;;0.68;;
64851;SDS011;56050;55.558;-4.644;2022-12-07T16:55:49;5.75;;;0.77;;
64851;SDS011;56050;55.558;-4.644;2022-12-07T16:58:15;5.85;;;2.08;;
64851;SDS011;56050;55.558;-4.644;2022-12-07T17:00:42;1.35;;;1.00;;
64851;SDS011;56050;55.558;-4.644;2022-12-07T17:03:08;3.05;;;1.17;;
64851;SDS011;56050;55.558;-4.644;2022-12-07T17:08:04;4.35;;;1.80;;
64851;SDS011;56050;55.558;-4.644;2022-12-07T17:12:54;2.23;;;1.40;;
64851;SDS011;56050;55.558;-4.644;2022-12-07T17:15:20;3.38;;;1.42;;
64851;SDS011;56050;55.558;-4.644;2022-12-07T17:17:46;4.47;;;0.77;;
64851;SDS011;56050;55.558;-4.644;2022-12-07T17:20:17;3.63;;;2.40;;
64851;SDS011;56050;55.558;-4.644;2022-12-07T17:22:44;3.88;;;1.60;;
64851;SDS011;56050;55.558;-4.644;2022-12-07T17:25:10;2.67;;;1.10;;
64851;SDS011;56050;55.558;-4.644;2022-12-07T17:27:36;2.92;;;0.90;;
64851;SDS011;56050;55.558;-4.644;2022-12-07T17:30:03;3.40;;;0.90;;
64851;SDS011;56050;55.558;-4.644;2022-12-07T17:32:29;1.80;;;0.65;;
64851;SDS011;56050;55.558;-4.644;2022-12-07T17:37:20;4.47;;;0.73;;
64851;SDS011;56050;55.558;-4.644;2022-12-07T17:42:11;4.20;;;1.00;;
64851;SDS011;56050;55.558;-4.644;2022-12-07T17:44:55;4.95;;;1.30;;
64851;SDS011;56050;55.558;-4.644;2022-12-07T17:47:20;2.58;;;0.85;;